Time;durP1;ratioP1;P1;durP2;ratioP2;P2;SDS_P1;SDS_P2;PMS_P1;PMS_P2;Temp;Humidity;BMP_temperature;BMP_pressure;BME280_temperature;BME280_humidity;BME280_pressure;Samples;Min_cycle;Max_cycle;Signal;HPM_P1;HPM_P2
2022/04/10 00:00:00;;;;;;;6.03;2.40;;;;;;;;;;5014007;28;20050;-68
2022/04/10 00:02:27;;;;;;;5.82;2.53;;;;;;;;;;5014020;28;20049;-68
2022/04/10 00:04:54;;;;;;;3.97;2.22;;;;;;;;;;5014039;28;20049;-68
2022/04/10 00:07:20;;;;;;;5.15;2.22;;;;;;;;;;5014002;28;20046;-68
2022/04/10 00:09:47;;;;;;;6.18;2.17;;;;;;;;;;5014117;28;20049;-68
2022/04/10 00:12:14;;;;;;;5.25;2.33;;;;;;;;;;5013932;28;20054;-68
2022/04/10 00:14:40;;;;;;;4.93;2.20;;;;;;;;;;5013917;28;20096;-69
2022/04/10 00:17:07;;;;;;;7.40;1.90;;;;;;;;;;5013774;28;20049;-68
2022/04/10 00:19:33;;;;;;;4.65;1.80;;;;;;;;;;5013753;28;20173;-68
2022/04/10 00:22:00;;;;;;;3.50;2.10;;;;;;;;;;5013524;28;20057;-69
2022/04/10 00:24:28;;;;;;;2.78;1.80;;;;;;;;;;5013877;28;20046;-68
2022/04/10 00:26:54;;;;;;;4.85;1.95;;;;;;;;;;5013836;28;20129;-68
2022/04/10 00:29:21;;;;;;;3.03;2.13;;;;;;;;;;5013770;28;20052;-68
2022/04/10 00:31:48;;;;;;;3.72;2.30;;;;;;;;;;5013393;28;20509;-68
2022/04/10 00:34:15;;;;;;;5.93;2.30;;;;;;;;;;5013313;28;20053;-68
2022/04/10 00:36:41;;;;;;;3.85;2.13;;;;;;;;;;5013289;28;20504;-68
2022/04/10 00:39:08;;;;;;;4.90;2.67;;;;;;;;;;5013682;28;20053;-68
2022/04/10 00:41:35;;;;;;;3.05;2.05;;;;;;;;;;5013212;28;20054;-68
2022/04/10 00:44:03;;;;;;;8.38;2.53;;;;;;;;;;5013380;28;20054;-68
2022/04/10 00:46:30;;;;;;;4.93;2.53;;;;;;;;;;5013275;28;20049;-68
2022/04/10 00:48:57;;;;;;;4.20;2.45;;;;;;;;;;5013161;28;20563;-68
2022/04/10 00:54:26;;;;;;;3.55;2.22;;;;;;;;;;5013117;28;20496;-68
2022/04/10 00:56:54;;;;;;;4.85;3.33;;;;;;;;;;5013075;28;20390;-68
2022/04/10 00:59:23;;;;;;;4.82;3.03;;;;;;;;;;5013049;28;20107;-68
2022/04/10 01:01:50;;;;;;;7.80;2.70;;;;;;;;;;5013100;28;20058;-68
2022/04/10 01:04:37;;;;;;;4.97;2.88;;;;;;;;;;5012778;28;20049;-68
2022/04/10 01:07:04;;;;;;;4.03;2.80;;;;;;;;;;5010371;28;20125;-68
2022/04/10 01:09:31;;;;;;;3.75;2.40;;;;;;;;;;5012799;28;20049;-68
2022/04/10 01:11:59;;;;;;;5.35;2.28;;;;;;;;;;5012624;28;20276;-68
2022/04/10 01:14:26;;;;;;;7.90;2.72;;;;;;;;;;5011761;28;20180;-68
2022/04/10 01:16:52;;;;;;;4.47;2.63;;;;;;;;;;4995343;28;20054;-68
2022/04/10 01:19:20;;;;;;;6.97;2.42;;;;;;;;;;5012801;28;20056;-68
2022/04/10 01:21:48;;;;;;;6.35;2.67;;;;;;;;;;5012355;28;20144;-68
2022/04/10 01:24:15;;;;;;;4.72;2.88;;;;;;;;;;5012473;28;20543;-68
2022/04/10 01:26:43;;;;;;;4.95;2.63;;;;;;;;;;5012794;28;20046;-68
2022/04/10 01:29:11;;;;;;;5.25;2.58;;;;;;;;;;5012662;28;20065;-68
2022/04/10 01:31:39;;;;;;;3.92;2.67;;;;;;;;;;5012301;28;20054;-68
2022/04/10 01:34:08;;;;;;;4.43;2.50;;;;;;;;;;5012423;28;20054;-69
2022/04/10 01:36:36;;;;;;;5.80;2.80;;;;;;;;;;5012110;28;20056;-68
2022/04/10 01:39:05;;;;;;;5.65;3.22;;;;;;;;;;5012218;28;20505;-68
2022/04/10 01:41:32;;;;;;;5.20;2.83;;;;;;;;;;5011863;28;20104;-69
2022/04/10 01:43:59;;;;;;;6.68;3.05;;;;;;;;;;5012390;28;20209;-68
2022/04/10 01:46:27;;;;;;;7.32;2.92;;;;;;;;;;5011868;28;20076;-68
2022/04/10 01:48:54;;;;;;;4.68;2.75;;;;;;;;;;5012207;28;20421;-69
2022/04/10 01:51:22;;;;;;;6.82;3.13;;;;;;;;;;5011635;28;20045;-68
2022/04/10 01:53:49;;;;;;;3.45;2.70;;;;;;;;;;5012190;28;20050;-69
2022/04/10 01:56:16;;;;;;;7.00;2.47;;;;;;;;;;5012184;28;20053;-68
2022/04/10 01:58:44;;;;;;;5.18;2.70;;;;;;;;;;5012321;28;20053;-68
2022/04/10 02:01:13;;;;;;;5.88;2.80;;;;;;;;;;5011745;28;20496;-68
2022/04/10 02:03:40;;;;;;;5.32;2.67;;;;;;;;;;5011872;28;20146;-69
2022/04/10 02:06:11;;;;;;;4.10;2.72;;;;;;;;;;5011891;28;20086;-68
2022/04/10 02:08:38;;;;;;;5.07;2.90;;;;;;;;;;5012238;28;20054;-68
2022/04/10 02:11:10;;;;;;;5.30;2.70;;;;;;;;;;5011862;28;20092;-68
2022/04/10 02:13:38;;;;;;;4.97;3.17;;;;;;;;;;5011979;28;20054;-68
2022/04/10 02:16:06;;;;;;;5.85;2.60;;;;;;;;;;5012010;28;20193;-68
2022/04/10 02:18:33;;;;;;;7.38;2.97;;;;;;;;;;5011684;28;20401;-68
2022/04/10 02:20:59;;;;;;;6.63;2.97;;;;;;;;;;5011553;28;20058;-68
2022/04/10 02:23:26;;;;;;;3.30;2.85;;;;;;;;;;5012083;28;20049;-68
2022/04/10 02:25:53;;;;;;;3.30;3.00;;;;;;;;;;5012137;28;20519;-68
2022/04/10 02:28:20;;;;;;;5.72;2.92;;;;;;;;;;5011969;28;20042;-69
2022/04/10 02:30:47;;;;;;;6.45;3.45;;;;;;;;;;5011495;28;20056;-68
2022/04/10 02:33:13;;;;;;;4.38;2.95;;;;;;;;;;5012031;28;20069;-69
2022/04/10 02:35:43;;;;;;;3.50;2.45;;;;;;;;;;5011820;28;20053;-68
2022/04/10 02:38:10;;;;;;;3.22;2.63;;;;;;;;;;5010569;28;20064;-68
2022/04/10 02:40:36;;;;;;;5.50;2.83;;;;;;;;;;5011653;28;20133;-68
2022/04/10 02:43:03;;;;;;;5.72;3.42;;;;;;;;;;5012112;28;20045;-67
2022/04/10 02:45:30;;;;;;;5.22;3.30;;;;;;;;;;5011559;28;20100;-67
2022/04/10 02:47:57;;;;;;;8.50;3.30;;;;;;;;;;5011847;28;20077;-68
2022/04/10 02:50:24;;;;;;;3.97;3.05;;;;;;;;;;5011423;28;20046;-68
2022/04/10 02:52:51;;;;;;;6.53;3.25;;;;;;;;;;5011388;28;20052;-68
2022/04/10 02:55:18;;;;;;;4.30;3.25;;;;;;;;;;5011565;28;20136;-67
2022/04/10 02:57:45;;;;;;;8.32;3.40;;;;;;;;;;5011525;28;20121;-68
2022/04/10 03:00:12;;;;;;;4.68;3.42;;;;;;;;;;5014434;28;20551;-68
2022/04/10 03:02:41;;;;;;;5.72;3.53;;;;;;;;;;5014878;28;20053;-68
2022/04/10 03:05:09;;;;;;;4.65;3.15;;;;;;;;;;5015082;28;20085;-68
2022/04/10 03:07:36;;;;;;;4.97;3.42;;;;;;;;;;5015367;28;20053;-68
2022/04/10 03:10:03;;;;;;;6.05;3.47;;;;;;;;;;5015730;28;20053;-67
2022/04/10 03:12:30;;;;;;;8.48;3.92;;;;;;;;;;5013836;28;20053;-68
2022/04/10 03:14:57;;;;;;;4.63;3.53;;;;;;;;;;5014965;28;20054;-68
2022/04/10 03:17:23;;;;;;;5.18;3.45;;;;;;;;;;5015081;28;20045;-68
2022/04/10 03:19:50;;;;;;;5.78;3.40;;;;;;;;;;5014937;28;20046;-68
2022/04/10 03:22:16;;;;;;;6.40;3.75;;;;;;;;;;5014864;28;20493;-68
2022/04/10 03:24:43;;;;;;;7.95;4.05;;;;;;;;;;5014775;28;20050;-68
2022/04/10 03:27:10;;;;;;;8.48;3.45;;;;;;;;;;5014697;28;20057;-68
2022/04/10 03:29:37;;;;;;;4.07;3.33;;;;;;;;;;5014758;28;20107;-68
2022/04/10 03:32:04;;;;;;;5.47;3.80;;;;;;;;;;5014671;28;20137;-68
2022/04/10 03:34:30;;;;;;;6.00;3.85;;;;;;;;;;5014704;28;20054;-68
2022/04/10 03:36:57;;;;;;;6.32;3.63;;;;;;;;;;5014454;28;20046;-68
2022/04/10 03:39:24;;;;;;;5.63;3.80;;;;;;;;;;5014342;28;20061;-68
2022/04/10 03:41:50;;;;;;;6.05;4.28;;;;;;;;;;5014181;28;20057;-68
2022/04/10 03:44:17;;;;;;;6.32;4.30;;;;;;;;;;5014388;28;20459;-68
2022/04/10 03:46:44;;;;;;;5.68;4.45;;;;;;;;;;5014398;28;20054;-68
2022/04/10 03:49:10;;;;;;;7.47;3.60;;;;;;;;;;5014337;28;20129;-68
2022/04/10 03:51:37;;;;;;;5.18;4.68;;;;;;;;;;5014230;28;20054;-68
2022/04/10 03:54:04;;;;;;;6.90;3.75;;;;;;;;;;5013141;28;20050;-68
2022/04/10 03:56:30;;;;;;;8.02;4.65;;;;;;;;;;5014099;28;20057;-68
2022/04/10 03:58:57;;;;;;;5.97;4.18;;;;;;;;;;5014423;28;20053;-68
2022/04/10 04:01:24;;;;;;;4.60;3.72;;;;;;;;;;5014020;28;20050;-68
2022/04/10 04:03:51;;;;;;;8.07;4.85;;;;;;;;;;5014010;28;20100;-68
2022/04/10 04:06:17;;;;;;;5.78;4.55;;;;;;;;;;5014199;28;20073;-68
2022/04/10 04:08:44;;;;;;;5.63;4.03;;;;;;;;;;5013286;28;20050;-68
2022/04/10 04:11:11;;;;;;;6.25;4.22;;;;;;;;;;5013572;28;20479;-67
2022/04/10 04:13:40;;;;;;;6.40;4.15;;;;;;;;;;5014084;28;20080;-68
2022/04/10 04:16:07;;;;;;;6.32;4.28;;;;;;;;;;5012677;28;20056;-67
2022/04/10 04:18:35;;;;;;;6.95;4.35;;;;;;;;;;5013982;28;20052;-68
2022/04/10 04:21:02;;;;;;;6.93;4.28;;;;;;;;;;5013695;28;20074;-68
2022/04/10 04:23:33;;;;;;;6.60;4.28;;;;;;;;;;4998359;28;20077;-69
2022/04/10 04:26:00;;;;;;;6.20;4.00;;;;;;;;;;5015708;28;20057;-69
2022/04/10 04:28:28;;;;;;;4.88;4.38;;;;;;;;;;5016529;28;20128;-68
2022/04/10 04:30:55;;;;;;;6.25;4.43;;;;;;;;;;5014604;28;20125;-68
2022/04/10 04:33:23;;;;;;;5.78;4.10;;;;;;;;;;5014565;28;20165;-68
2022/04/10 04:35:50;;;;;;;5.97;4.70;;;;;;;;;;5015377;28;20050;-68
2022/04/10 04:38:17;;;;;;;5.32;4.30;;;;;;;;;;5014167;28;20046;-68
2022/04/10 04:40:44;;;;;;;4.78;4.22;;;;;;;;;;5014466;28;20175;-69
2022/04/10 04:43:11;;;;;;;5.32;3.97;;;;;;;;;;5015532;28;20045;-68
2022/04/10 04:45:39;;;;;;;7.53;4.68;;;;;;;;;;4997983;28;20058;-68
2022/04/10 04:48:06;;;;;;;6.50;4.28;;;;;;;;;;5014366;28;20053;-68
2022/04/10 04:50:33;;;;;;;5.95;4.65;;;;;;;;;;5014294;28;20050;-68
2022/04/10 04:53:00;;;;;;;6.32;4.43;;;;;;;;;;5014391;28;20046;-68
2022/04/10 04:55:27;;;;;;;6.18;4.53;;;;;;;;;;5015828;28;20076;-68
2022/04/10 04:57:55;;;;;;;8.70;5.30;;;;;;;;;;5021963;28;20482;-68
2022/04/10 05:00:22;;;;;;;8.10;4.72;;;;;;;;;;5022459;28;20050;-67
2022/04/10 05:02:49;;;;;;;5.65;4.28;;;;;;;;;;5018085;28;20133;-67
2022/04/10 05:05:16;;;;;;;8.63;4.35;;;;;;;;;;5015575;28;20054;-68
2022/04/10 05:07:43;;;;;;;5.45;4.45;;;;;;;;;;5015538;28;20046;-68
2022/04/10 05:10:10;;;;;;;7.90;4.50;;;;;;;;;;5014773;28;20050;-68
2022/04/10 05:12:37;;;;;;;5.57;4.78;;;;;;;;;;5014858;28;20050;-68
2022/04/10 05:15:07;;;;;;;5.78;3.95;;;;;;;;;;5015321;28;20568;-68
2022/04/10 05:17:35;;;;;;;4.97;4.30;;;;;;;;;;4993721;28;20053;-68
2022/04/10 05:20:03;;;;;;;6.05;4.43;;;;;;;;;;4994014;28;20405;-68
2022/04/10 05:22:30;;;;;;;6.22;4.32;;;;;;;;;;4977866;28;20059;-68
2022/04/10 05:25:00;;;;;;;7.72;5.05;;;;;;;;;;4994065;28;20060;-67
2022/04/10 05:27:27;;;;;;;6.07;4.13;;;;;;;;;;4995088;28;20050;-68
2022/04/10 05:29:54;;;;;;;5.43;4.80;;;;;;;;;;5004534;28;20510;-67
2022/04/10 05:32:21;;;;;;;5.05;4.10;;;;;;;;;;5003034;28;20048;-67
2022/04/10 05:34:47;;;;;;;6.43;4.43;;;;;;;;;;5007051;28;20061;-67
2022/04/10 05:37:14;;;;;;;6.22;4.10;;;;;;;;;;5008742;28;20049;-68
2022/04/10 05:39:42;;;;;;;5.72;4.28;;;;;;;;;;5001785;28;20058;-67
2022/04/10 05:42:09;;;;;;;6.70;3.63;;;;;;;;;;4998588;28;20533;-67
2022/04/10 05:44:36;;;;;;;6.93;4.07;;;;;;;;;;5007185;28;20058;-67
2022/04/10 05:47:03;;;;;;;6.25;3.97;;;;;;;;;;5012711;28;20058;-67
2022/04/10 05:49:30;;;;;;;4.30;3.88;;;;;;;;;;5012287;28;20057;-67
2022/04/10 05:51:57;;;;;;;8.63;4.88;;;;;;;;;;5012086;28;20046;-67
2022/04/10 05:54:23;;;;;;;7.15;4.30;;;;;;;;;;5012603;28;20072;-67
2022/04/10 05:56:50;;;;;;;6.57;4.47;;;;;;;;;;5012264;28;20119;-68
2022/04/10 05:59:17;;;;;;;5.85;4.05;;;;;;;;;;5006020;28;20385;-67
2022/04/10 06:01:46;;;;;;;5.53;4.53;;;;;;;;;;5001189;28;20061;-67
2022/04/10 06:04:13;;;;;;;7.68;4.53;;;;;;;;;;5002882;28;20052;-67
2022/04/10 06:06:40;;;;;;;4.65;4.13;;;;;;;;;;5000395;28;20060;-67
2022/04/10 06:09:06;;;;;;;6.32;4.32;;;;;;;;;;4998613;28;20059;-67
2022/04/10 06:11:34;;;;;;;4.97;3.92;;;;;;;;;;4997370;28;20100;-67
2022/04/10 06:14:00;;;;;;;5.72;3.97;;;;;;;;;;4997520;28;20050;-68
2022/04/10 06:16:27;;;;;;;7.20;4.70;;;;;;;;;;4992636;28;20062;-68
2022/04/10 06:18:54;;;;;;;6.80;4.43;;;;;;;;;;4992898;28;20409;-68
2022/04/10 06:21:21;;;;;;;5.28;3.85;;;;;;;;;;4992415;28;20054;-68
2022/04/10 06:23:47;;;;;;;7.20;4.05;;;;;;;;;;4992560;28;20065;-67
2022/04/10 06:26:14;;;;;;;6.65;4.25;;;;;;;;;;4992380;28;20421;-68
2022/04/10 06:28:41;;;;;;;6.40;4.43;;;;;;;;;;4992294;28;20489;-67
2022/04/10 06:31:07;;;;;;;7.80;3.60;;;;;;;;;;4992328;28;20137;-68
2022/04/10 06:33:34;;;;;;;7.88;4.60;;;;;;;;;;4994869;28;20521;-67
2022/04/10 06:36:01;;;;;;;5.72;4.20;;;;;;;;;;4996406;28;20108;-68
2022/04/10 06:38:27;;;;;;;6.50;4.75;;;;;;;;;;4996186;28;20054;-68
2022/04/10 06:40:54;;;;;;;3.92;3.53;;;;;;;;;;4995790;28;20050;-68
2022/04/10 06:43:21;;;;;;;4.28;3.75;;;;;;;;;;4996572;28;20140;-67
2022/04/10 06:45:48;;;;;;;5.13;3.33;;;;;;;;;;5013507;28;20060;-67
2022/04/10 06:48:15;;;;;;;5.18;3.15;;;;;;;;;;5013669;28;20050;-67
2022/04/10 06:50:41;;;;;;;5.65;3.50;;;;;;;;;;5013465;28;20137;-67
2022/04/10 06:53:09;;;;;;;4.15;3.55;;;;;;;;;;5013262;28;20057;-67
2022/04/10 06:55:36;;;;;;;4.75;3.70;;;;;;;;;;5013130;28;20380;-66
2022/04/10 06:58:03;;;;;;;4.72;3.38;;;;;;;;;;5013001;28;20057;-67
2022/04/10 07:00:31;;;;;;;7.18;3.88;;;;;;;;;;5013297;28;20054;-67
2022/04/10 07:03:01;;;;;;;4.95;3.63;;;;;;;;;;5013024;28;20100;-67
2022/04/10 07:05:28;;;;;;;7.00;3.65;;;;;;;;;;5013409;28;20046;-67
2022/04/10 07:07:55;;;;;;;4.32;3.88;;;;;;;;;;5013276;28;20050;-67
2022/04/10 07:10:22;;;;;;;6.15;3.65;;;;;;;;;;5012908;28;20497;-67
2022/04/10 07:12:50;;;;;;;5.47;3.35;;;;;;;;;;5012593;28;20060;-67
2022/04/10 07:15:20;;;;;;;8.75;3.45;;;;;;;;;;5013205;28;20507;-67
2022/04/10 07:17:55;;;;;;;5.75;3.15;;;;;;;;;;5012877;28;20510;-67
2022/04/10 07:20:22;;;;;;;6.07;4.13;;;;;;;;;;5013169;28;20548;-67
2022/04/10 07:25:34;;;;;;;4.53;2.92;;;;;;;;;;5012475;28;20065;-67
2022/04/10 07:28:01;;;;;;;5.00;3.50;;;;;;;;;;5012690;28;20501;-67
2022/04/10 07:30:27;;;;;;;6.70;3.40;;;;;;;;;;5012901;28;20053;-65
2022/04/10 07:32:55;;;;;;;5.65;3.80;;;;;;;;;;5008333;28;20042;-65
2022/04/10 07:35:22;;;;;;;4.47;3.13;;;;;;;;;;4991881;28;20050;-65
2022/04/10 07:37:48;;;;;;;6.55;3.42;;;;;;;;;;4992535;28;20046;-66
2022/04/10 07:40:15;;;;;;;6.93;3.38;;;;;;;;;;4993455;28;20050;-67
2022/04/10 07:42:43;;;;;;;4.80;3.30;;;;;;;;;;4993726;28;20050;-66
2022/04/10 07:47:59;;;;;;;4.05;3.60;;;;;;;;;;5012642;28;20478;-66
2022/04/10 07:50:26;;;;;;;5.75;3.75;;;;;;;;;;5011982;28;20064;-66
2022/04/10 07:52:52;;;;;;;4.53;3.97;;;;;;;;;;5011019;28;20057;-66
2022/04/10 07:55:19;;;;;;;6.32;4.13;;;;;;;;;;5012565;28;20485;-65
2022/04/10 07:57:46;;;;;;;5.63;3.95;;;;;;;;;;5012257;28;20114;-66
2022/04/10 08:00:14;;;;;;;5.97;4.20;;;;;;;;;;5010836;28;20073;-66
2022/04/10 08:02:42;;;;;;;6.60;3.67;;;;;;;;;;5011917;28;20049;-66
2022/04/10 08:05:09;;;;;;;7.43;3.83;;;;;;;;;;5011747;28;20061;-66
2022/04/10 08:07:36;;;;;;;6.95;4.35;;;;;;;;;;5012588;28;20060;-66
2022/04/10 08:10:03;;;;;;;4.63;4.07;;;;;;;;;;5012200;28;20053;-66
2022/04/10 08:12:29;;;;;;;6.20;3.25;;;;;;;;;;5011677;28;20050;-66
2022/04/10 08:14:56;;;;;;;6.03;3.60;;;;;;;;;;5011889;28;20463;-66
2022/04/10 08:17:23;;;;;;;4.85;3.58;;;;;;;;;;5011693;28;20057;-66
2022/04/10 08:19:49;;;;;;;4.10;3.10;;;;;;;;;;5011755;28;20057;-66
2022/04/10 08:22:25;;;;;;;5.00;2.65;;;;;;;;;;4998964;28;20080;-73
2022/04/10 08:24:53;;;;;;;13.38;4.93;;;;;;;;;;4987006;28;20047;-73
2022/04/10 08:27:20;;;;;;;7.50;3.75;;;;;;;;;;5002408;28;20054;-72
2022/04/10 08:29:53;;;;;;;5.85;3.10;;;;;;;;;;5000266;28;20526;-71
2022/04/10 08:32:19;;;;;;;5.53;3.03;;;;;;;;;;4998426;28;20521;-67
2022/04/10 08:34:46;;;;;;;4.90;3.00;;;;;;;;;;5000047;28;20061;-67
2022/04/10 08:37:13;;;;;;;7.07;2.90;;;;;;;;;;4999118;28;20077;-70
2022/04/10 08:39:40;;;;;;;4.95;2.78;;;;;;;;;;4974181;28;20056;-71
2022/04/10 08:42:08;;;;;;;4.45;2.80;;;;;;;;;;5035278;28;20054;-69
2022/04/10 08:44:35;;;;;;;4.53;3.10;;;;;;;;;;5016719;28;20137;-70
2022/04/10 08:47:02;;;;;;;5.60;2.88;;;;;;;;;;5020100;28;20137;-70
2022/04/10 08:49:30;;;;;;;6.15;3.03;;;;;;;;;;5019719;28;20053;-70
2022/04/10 08:52:00;;;;;;;5.32;3.10;;;;;;;;;;5018009;28;20526;-73
2022/04/10 08:54:40;;;;;;;6.03;2.85;;;;;;;;;;5001196;28;20046;-74
2022/04/10 08:57:09;;;;;;;5.10;3.17;;;;;;;;;;5016290;28;20053;-68
2022/04/10 08:59:36;;;;;;;6.00;3.58;;;;;;;;;;5020368;28;20086;-72
2022/04/10 09:02:03;;;;;;;5.55;3.35;;;;;;;;;;5016300;28;20493;-67
2022/04/10 09:04:31;;;;;;;4.60;2.97;;;;;;;;;;5017847;28;20460;-70
2022/04/10 09:07:03;;;;;;;4.65;3.53;;;;;;;;;;5016641;28;20050;-65
2022/04/10 09:09:31;;;;;;;6.00;3.65;;;;;;;;;;5023907;28;20046;-65
2022/04/10 09:11:58;;;;;;;8.60;4.28;;;;;;;;;;5018141;28;20056;-69
2022/04/10 09:14:34;;;;;;;5.45;3.55;;;;;;;;;;5019043;28;20049;-70
2022/04/10 09:17:20;;;;;;;5.95;3.67;;;;;;;;;;5021358;28;20042;-70
2022/04/10 09:19:48;;;;;;;4.35;3.38;;;;;;;;;;5019405;28;20057;-73
2022/04/10 09:22:30;;;;;;;5.13;4.00;;;;;;;;;;5001405;28;20047;-73
2022/04/10 09:25:12;;;;;;;3.97;3.60;;;;;;;;;;5017668;28;20049;-73
2022/04/10 09:27:43;;;;;;;4.15;3.03;;;;;;;;;;5020740;28;20077;-73
2022/04/10 09:30:12;;;;;;;7.93;3.58;;;;;;;;;;5017221;28;20071;-73
2022/04/10 09:32:44;;;;;;;4.85;3.38;;;;;;;;;;5018025;28;20050;-73
2022/04/10 09:35:13;;;;;;;5.05;3.22;;;;;;;;;;5016845;28;20048;-75
2022/04/10 09:37:52;;;;;;;6.35;4.38;;;;;;;;;;5018836;28;20049;-72
2022/04/10 09:40:23;;;;;;;6.63;3.92;;;;;;;;;;5023876;28;20041;-73
2022/04/10 09:43:11;;;;;;;6.25;3.45;;;;;;;;;;5019237;28;20046;-74
2022/04/10 09:45:47;;;;;;;7.65;3.38;;;;;;;;;;5019805;28;20045;-73
2022/04/10 09:48:27;;;;;;;6.40;3.25;;;;;;;;;;4994028;28;20053;-78
2022/04/10 09:50:59;;;;;;;7.90;3.47;;;;;;;;;;5002362;28;20240;-70
2022/04/10 09:53:27;;;;;;;8.35;4.05;;;;;;;;;;5015729;28;20085;-67
2022/04/10 09:55:57;;;;;;;4.53;2.90;;;;;;;;;;5016842;28;20049;-67
2022/04/10 09:58:25;;;;;;;5.25;3.45;;;;;;;;;;5015525;28;20046;-66
2022/04/10 10:00:54;;;;;;;5.43;3.00;;;;;;;;;;5016288;28;20658;-66
2022/04/10 10:03:31;;;;;;;4.20;3.35;;;;;;;;;;5017086;28;20067;-66
2022/04/10 10:05:58;;;;;;;4.72;2.85;;;;;;;;;;5015969;28;20132;-67
2022/04/10 10:08:27;;;;;;;5.85;3.25;;;;;;;;;;5016044;28;20057;-67
2022/04/10 10:10:56;;;;;;;4.47;2.55;;;;;;;;;;5015882;28;20166;-68
2022/04/10 10:13:27;;;;;;;6.47;3.25;;;;;;;;;;5016503;28;20132;-69
2022/04/10 10:15:55;;;;;;;5.28;2.88;;;;;;;;;;5016213;28;20050;-65
2022/04/10 10:18:23;;;;;;;4.55;2.30;;;;;;;;;;5015945;28;20045;-69
2022/04/10 10:20:50;;;;;;;5.05;2.72;;;;;;;;;;5020100;28;20049;-69
2022/04/10 10:23:19;;;;;;;4.97;2.80;;;;;;;;;;5013627;28;20759;-74
2022/04/10 10:26:25;;;;;;;5.85;2.95;;;;;;;;;;4999957;28;20057;-73
2022/04/10 10:29:23;;;;;;;4.95;2.40;;;;;;;;;;5012568;28;20304;-73
2022/04/10 10:32:03;;;;;;;5.72;2.85;;;;;;;;;;5018267;28;20497;-73
2022/04/10 10:34:30;;;;;;;5.45;3.85;;;;;;;;;;5015378;28;20821;-68
2022/04/10 10:37:01;;;;;;;6.53;3.60;;;;;;;;;;5015285;28;20054;-69
2022/04/10 10:39:29;;;;;;;3.83;3.40;;;;;;;;;;5016532;28;20060;-68
2022/04/10 10:42:09;;;;;;;5.93;3.63;;;;;;;;;;5018058;28;20053;-72
2022/04/10 10:44:41;;;;;;;5.25;3.67;;;;;;;;;;5019130;28;20067;-72
2022/04/10 10:47:18;;;;;;;6.65;3.78;;;;;;;;;;5015654;28;20050;-73
2022/04/10 10:49:46;;;;;;;7.80;3.60;;;;;;;;;;5020299;28;20091;-72
2022/04/10 10:52:13;;;;;;;7.18;4.47;;;;;;;;;;5014639;28;20116;-73
2022/04/10 10:54:58;;;;;;;5.88;4.07;;;;;;;;;;5012446;28;20053;-73
2022/04/10 10:57:25;;;;;;;6.60;3.80;;;;;;;;;;5017000;28;20060;-73
2022/04/10 10:59:53;;;;;;;4.85;3.95;;;;;;;;;;5015373;28;20046;-73
2022/04/10 11:02:20;;;;;;;5.57;3.83;;;;;;;;;;5015838;28;20050;-73
2022/04/10 11:05:28;;;;;;;8.35;4.10;;;;;;;;;;5015163;28;20046;-73
2022/04/10 11:08:00;;;;;;;7.00;3.95;;;;;;;;;;5014943;28;20136;-72
2022/04/10 11:10:29;;;;;;;6.35;3.35;;;;;;;;;;5014657;28;20054;-72
2022/04/10 11:13:01;;;;;;;8.27;3.60;;;;;;;;;;5015837;28;20045;-68
2022/04/10 11:15:46;;;;;;;4.22;3.45;;;;;;;;;;5016965;28;20592;-72
2022/04/10 11:18:35;;;;;;;5.35;3.53;;;;;;;;;;5017332;28;20156;-72
2022/04/10 11:21:15;;;;;;;6.28;2.97;;;;;;;;;;5021970;28;20049;-72
2022/04/10 11:23:51;;;;;;;4.75;3.25;;;;;;;;;;5019991;28;20046;-71
2022/04/10 11:26:19;;;;;;;5.30;3.22;;;;;;;;;;5017181;28;20509;-71
2022/04/10 11:29:03;;;;;;;4.25;3.00;;;;;;;;;;5019391;28;20128;-71
2022/04/10 11:31:44;;;;;;;5.18;3.25;;;;;;;;;;5019679;28;20138;-68
2022/04/10 11:34:21;;;;;;;3.95;2.90;;;;;;;;;;5018887;28;20091;-68
2022/04/10 11:36:50;;;;;;;3.17;2.30;;;;;;;;;;5020372;28;20419;-67
2022/04/10 11:39:16;;;;;;;5.63;2.63;;;;;;;;;;5023433;28;20148;-68
2022/04/10 11:41:43;;;;;;;4.53;3.40;;;;;;;;;;5017280;28;20060;-68
2022/04/10 11:44:10;;;;;;;7.40;3.78;;;;;;;;;;5019846;28;20046;-68
2022/04/10 11:46:36;;;;;;;4.55;3.42;;;;;;;;;;5018024;28;20049;-68
2022/04/10 11:49:03;;;;;;;5.68;3.25;;;;;;;;;;5001507;28;20095;-69
2022/04/10 11:51:30;;;;;;;7.07;3.33;;;;;;;;;;5018299;28;20092;-68
2022/04/10 11:54:00;;;;;;;4.38;3.13;;;;;;;;;;5018586;28;20500;-68
2022/04/10 11:56:26;;;;;;;6.55;3.33;;;;;;;;;;5021852;28;20558;-68
2022/04/10 11:58:53;;;;;;;6.47;3.72;;;;;;;;;;5000810;28;20065;-68
2022/04/10 12:01:19;;;;;;;5.97;3.00;;;;;;;;;;5001609;28;20046;-68
2022/04/10 12:03:49;;;;;;;3.60;2.20;;;;;;;;;;5016027;28;20053;-68
2022/04/10 12:06:22;;;;;;;3.22;2.20;;;;;;;;;;5021111;28;20115;-68
2022/04/10 12:08:48;;;;;;;3.65;1.98;;;;;;;;;;5017830;28;20128;-68
2022/04/10 12:11:15;;;;;;;2.92;2.00;;;;;;;;;;5018225;28;20064;-68
2022/04/10 12:13:42;;;;;;;4.82;2.45;;;;;;;;;;5021700;28;20057;-68
2022/04/10 12:16:10;;;;;;;4.30;2.22;;;;;;;;;;5018077;28;20111;-68
2022/04/10 12:18:52;;;;;;;6.97;3.88;;;;;;;;;;5020256;28;20523;-68
2022/04/10 12:21:20;;;;;;;5.53;2.60;;;;;;;;;;5033740;28;20050;-68
2022/04/10 12:24:01;;;;;;;4.38;2.78;;;;;;;;;;5020582;28;20041;-68
2022/04/10 12:26:28;;;;;;;5.97;2.58;;;;;;;;;;5020871;28;20050;-68
2022/04/10 12:28:56;;;;;;;3.83;3.00;;;;;;;;;;5004745;28;20041;-68
2022/04/10 12:31:23;;;;;;;4.85;2.83;;;;;;;;;;5021480;28;20041;-68
2022/04/10 12:33:50;;;;;;;5.50;2.90;;;;;;;;;;5017654;28;20412;-69
2022/04/10 12:36:18;;;;;;;5.85;3.55;;;;;;;;;;5019004;28;20049;-69
2022/04/10 12:38:45;;;;;;;3.90;2.67;;;;;;;;;;5020372;28;20128;-67
2022/04/10 12:41:11;;;;;;;3.35;2.65;;;;;;;;;;5025115;28;20049;-68
2022/04/10 12:43:38;;;;;;;3.28;2.67;;;;;;;;;;5032209;28;20049;-68
2022/04/10 12:46:12;;;;;;;3.72;2.65;;;;;;;;;;5031782;28;20057;-68
2022/04/10 12:48:39;;;;;;;4.80;2.90;;;;;;;;;;5032311;28;20077;-68
2022/04/10 12:51:14;;;;;;;5.70;2.72;;;;;;;;;;5033241;28;20527;-68
2022/04/10 12:53:47;;;;;;;4.53;2.65;;;;;;;;;;5033065;28;20053;-69
2022/04/10 12:56:21;;;;;;;2.20;2.00;;;;;;;;;;5033233;28;20140;-69
2022/04/10 12:58:50;;;;;;;2.83;2.25;;;;;;;;;;5033709;28;20046;-69
2022/04/10 13:01:24;;;;;;;6.93;2.78;;;;;;;;;;5032832;28;20128;-69
2022/04/10 13:03:51;;;;;;;4.18;2.22;;;;;;;;;;5033226;28;20124;-69
2022/04/10 13:06:19;;;;;;;2.25;1.60;;;;;;;;;;5043037;28;20115;-69
2022/04/10 13:08:47;;;;;;;2.17;1.63;;;;;;;;;;5043758;28;20060;-69
2022/04/10 13:11:14;;;;;;;2.65;1.73;;;;;;;;;;5044193;28;20045;-69
2022/04/10 13:14:00;;;;;;;3.88;2.03;;;;;;;;;;5029539;28;20053;-69
2022/04/10 13:16:29;;;;;;;2.58;1.77;;;;;;;;;;5026872;28;20049;-69
2022/04/10 13:19:00;;;;;;;2.53;1.90;;;;;;;;;;5025162;28;20467;-69
2022/04/10 13:21:27;;;;;;;3.58;1.92;;;;;;;;;;5040688;28;20046;-69
2022/04/10 13:23:54;;;;;;;4.40;2.15;;;;;;;;;;5043710;28;20053;-69
2022/04/10 13:26:28;;;;;;;3.58;2.53;;;;;;;;;;5043378;28;20049;-70
2022/04/10 13:28:59;;;;;;;4.00;2.40;;;;;;;;;;5044661;28;20045;-69
2022/04/10 13:31:26;;;;;;;4.95;2.40;;;;;;;;;;5025051;28;20045;-69
2022/04/10 13:33:54;;;;;;;4.78;2.10;;;;;;;;;;5026930;28;20053;-69
2022/04/10 13:36:22;;;;;;;4.32;1.98;;;;;;;;;;5043251;28;20049;-69
2022/04/10 13:38:49;;;;;;;3.75;1.90;;;;;;;;;;5041308;28;20492;-69
2022/04/10 13:41:16;;;;;;;2.22;1.52;;;;;;;;;;5031677;28;20467;-69
2022/04/10 13:43:42;;;;;;;2.72;1.90;;;;;;;;;;5032014;28;20518;-68
2022/04/10 13:46:09;;;;;;;3.30;1.88;;;;;;;;;;5032400;28;20049;-69
2022/04/10 13:48:36;;;;;;;3.17;1.60;;;;;;;;;;5032271;28;20059;-68
2022/04/10 13:51:03;;;;;;;4.45;1.70;;;;;;;;;;5031830;28;20052;-68
2022/04/10 13:53:29;;;;;;;4.68;2.25;;;;;;;;;;5034757;28;20053;-69
2022/04/10 13:55:56;;;;;;;1.88;1.73;;;;;;;;;;5053559;28;20045;-68
2022/04/10 13:58:22;;;;;;;5.55;2.25;;;;;;;;;;5049746;28;20045;-69
2022/04/10 14:00:49;;;;;;;2.20;1.80;;;;;;;;;;5032227;28;20042;-69
2022/04/10 14:03:16;;;;;;;5.05;2.15;;;;;;;;;;5034038;28;20049;-69
2022/04/10 14:05:42;;;;;;;4.80;2.20;;;;;;;;;;5026216;28;20045;-68
2022/04/10 14:08:09;;;;;;;2.38;1.77;;;;;;;;;;5018353;28;20046;-68
2022/04/10 14:10:37;;;;;;;3.78;2.05;;;;;;;;;;5020391;28;20813;-77
2022/04/10 14:13:03;;;;;;;2.08;1.75;;;;;;;;;;5001969;28;20049;-74
2022/04/10 14:15:30;;;;;;;4.38;1.90;;;;;;;;;;5021064;28;20120;-74
2022/04/10 14:17:57;;;;;;;5.18;2.53;;;;;;;;;;5018273;28;20052;-75
2022/04/10 14:20:24;;;;;;;4.15;2.70;;;;;;;;;;5000925;28;20042;-75
2022/04/10 14:22:51;;;;;;;4.43;2.00;;;;;;;;;;5016295;28;20053;-77
2022/04/10 14:25:18;;;;;;;3.78;2.58;;;;;;;;;;4996186;28;20050;-77
2022/04/10 14:27:44;;;;;;;4.82;2.30;;;;;;;;;;5026378;28;20084;-77
2022/04/10 14:30:11;;;;;;;4.68;2.45;;;;;;;;;;5028331;28;20046;-78
2022/04/10 14:32:39;;;;;;;5.82;2.42;;;;;;;;;;5019348;28;20053;-73
2022/04/10 14:35:06;;;;;;;4.32;1.95;;;;;;;;;;5022123;28;20100;-75
2022/04/10 14:37:33;;;;;;;3.88;2.30;;;;;;;;;;5016868;28;20413;-76
2022/04/10 14:40:00;;;;;;;4.28;3.15;;;;;;;;;;5022350;28;20137;-74
2022/04/10 14:42:27;;;;;;;4.57;3.15;;;;;;;;;;5019642;28;20054;-73
2022/04/10 14:44:54;;;;;;;5.07;2.55;;;;;;;;;;5019460;28;20053;-76
2022/04/10 14:47:21;;;;;;;3.72;2.05;;;;;;;;;;5022461;28;20041;-73
2022/04/10 14:49:51;;;;;;;5.00;3.03;;;;;;;;;;5020014;28;20056;-74
2022/04/10 14:52:27;;;;;;;4.00;2.35;;;;;;;;;;5022491;28;20054;-77
2022/04/10 14:54:54;;;;;;;3.60;2.40;;;;;;;;;;5021105;28;20057;-80
2022/04/10 14:57:20;;;;;;;3.83;2.33;;;;;;;;;;5024578;28;20050;-77
2022/04/10 14:59:47;;;;;;;4.05;2.50;;;;;;;;;;5025683;28;20155;-77